Time;durP1;ratioP1;P1;durP2;ratioP2;P2;SDS_P1;SDS_P2;PMS_P1;PMS_P2;Temp;Humidity;BMP_temperature;BMP_pressure;BME280_temperature;BME280_humidity;BME280_pressure;Samples;Min_cycle;Max_cycle;Signal;HPM_P1;HPM_P2
2023/04/29 00:00:30;;;;;;;10.67;7.57;;;;;;;13.14;100.00;95927.66;5042161;28;20033;-86
2023/04/29 00:02:56;;;;;;;8.83;6.20;;;;;;;13.15;100.00;95924.03;5054090;28;20048;-85
2023/04/29 00:05:21;;;;;;;12.00;7.50;;;;;;;13.15;100.00;95924.03;5071793;28;20039;-85
2023/04/29 00:07:47;;;;;;;9.97;6.87;;;;;;;13.16;100.00;95917.75;5054405;28;20452;-85
2023/04/29 00:10:17;;;;;;;9.57;6.47;;;;;;;13.21;100.00;95920.66;5070582;28;20035;-84
2023/04/29 00:12:42;;;;;;;7.80;5.80;;;;;;;13.19;100.00;95910.28;5053326;28;20079;-85
2023/04/29 00:15:08;;;;;;;19.17;14.57;;;;;;;13.21;100.00;95923.28;5067017;28;20819;-85
2023/04/29 00:17:34;;;;;;;32.13;26.67;;;;;;;13.24;100.00;95912.38;5071331;28;20024;-86
2023/04/29 00:19:59;;;;;;;10.90;7.90;;;;;;;13.18;100.00;95919.22;5072493;28;20482;-86
2023/04/29 00:22:25;;;;;;;11.70;7.63;;;;;;;13.28;100.00;95918.13;5071652;28;20048;-86
2023/04/29 00:24:53;;;;;;;8.57;5.30;;;;;;;13.09;100.00;95912.38;5076410;28;20040;-86
2023/04/29 00:27:19;;;;;;;9.40;7.07;;;;;;;13.14;100.00;95911.81;5060883;28;20074;-86
2023/04/29 00:29:46;;;;;;;11.57;8.13;;;;;;;13.07;100.00;95916.19;5056934;28;20028;-86
2023/04/29 00:32:14;;;;;;;14.13;12.17;;;;;;;13.11;100.00;95917.47;5055315;28;20509;-86
2023/04/29 00:34:41;;;;;;;21.47;16.37;;;;;;;13.06;100.00;95914.56;5062293;28;20119;-86
2023/04/29 00:37:07;;;;;;;11.47;9.33;;;;;;;13.04;100.00;95916.56;5061685;28;20040;-85
2023/04/29 00:39:33;;;;;;;10.87;7.53;;;;;;;13.08;100.00;95912.56;5052454;28;20739;-85
2023/04/29 00:42:07;;;;;;;9.50;6.83;;;;;;;13.09;100.00;95914.22;5054096;28;20025;-86
2023/04/29 00:44:41;;;;;;;8.03;5.80;;;;;;;12.96;100.00;95910.38;5050079;28;20040;-86
2023/04/29 00:47:12;;;;;;;13.30;9.43;;;;;;;12.85;100.00;95918.75;5066543;28;20036;-86
2023/04/29 00:49:39;;;;;;;11.70;9.07;;;;;;;12.93;100.00;95909.91;5049240;28;20032;-85
2023/04/29 00:52:06;;;;;;;26.47;22.03;;;;;;;12.92;100.00;95917.03;5077998;28;20094;-85
2023/04/29 00:54:39;;;;;;;13.40;8.87;;;;;;;12.83;100.00;95917.28;5071339;28;20440;-85
2023/04/29 00:57:06;;;;;;;12.30;7.97;;;;;;;12.82;100.00;95924.38;5053281;28;20120;-86
2023/04/29 00:59:32;;;;;;;9.93;7.03;;;;;;;12.66;100.00;95924.53;5051742;28;20044;-86
2023/04/29 01:02:03;;;;;;;9.03;7.73;;;;;;;12.65;100.00;95921.09;5070242;28;20043;-86
2023/04/29 01:04:29;;;;;;;8.87;6.70;;;;;;;12.71;100.00;95920.38;5054160;28;20336;-86
2023/04/29 01:07:35;;;;;;;8.93;6.20;;;;;;;12.73;100.00;95926.28;5047669;28;20544;-86
2023/04/29 01:10:12;;;;;;;14.37;10.17;;;;;;;12.66;100.00;95924.53;5006295;28;20026;-86
2023/04/29 01:12:45;;;;;;;17.73;10.77;;;;;;;12.71;100.00;95927.47;5048505;28;20094;-86
2023/04/29 01:15:22;;;;;;;9.43;7.63;;;;;;;12.61;100.00;95921.59;5053284;28;20132;-86
2023/04/29 01:18:30;;;;;;;11.93;6.20;;;;;;;12.61;100.00;95932.16;5057970;28;20036;-85
2023/04/29 01:20:57;;;;;;;12.20;9.47;;;;;;;12.56;100.00;95937.16;5057239;28;20040;-86
2023/04/29 01:23:30;;;;;;;8.83;6.87;;;;;;;12.64;100.00;95937.94;5056723;28;20044;-86
2023/04/29 01:25:57;;;;;;;10.27;7.23;;;;;;;12.62;100.00;95928.56;5054346;28;20546;-86
2023/04/29 01:29:21;;;;;;;10.17;6.70;;;;;;;12.63;100.00;95938.09;5047496;28;20467;-85
2023/04/29 01:32:07;;;;;;;8.70;5.73;;;;;;;12.63;100.00;95940.72;5054407;28;20853;-86
2023/04/29 01:37:56;;;;;;;8.93;5.50;;;;;;;12.58;100.00;95932.56;5070174;28;20592;-86
2023/04/29 01:40:55;;;;;;;7.87;5.50;;;;;;;12.47;100.00;95936.41;5047785;28;20458;-85
2023/04/29 01:43:27;;;;;;;8.83;6.50;;;;;;;12.53;100.00;95933.06;5052521;28;20454;-86
2023/04/29 01:45:55;;;;;;;14.30;6.70;;;;;;;12.50;100.00;95933.41;5054208;28;20032;-86
2023/04/29 01:48:36;;;;;;;9.23;5.47;;;;;;;12.48;100.00;95930.97;5067896;28;20078;-85
2023/04/29 01:51:04;;;;;;;7.80;5.43;;;;;;;12.58;100.00;95932.56;5046135;28;20024;-86
2023/04/29 01:53:30;;;;;;;8.20;5.43;;;;;;;12.55;100.00;95930.25;5051292;28;20032;-85
2023/04/29 01:55:55;;;;;;;9.60;6.63;;;;;;;12.49;100.00;95929.97;5093376;28;20032;-85
2023/04/29 01:58:25;;;;;;;8.13;5.47;;;;;;;12.48;100.00;95923.06;5049087;28;20029;-86
2023/04/29 02:00:54;;;;;;;8.60;5.67;;;;;;;12.44;100.00;95931.50;5075980;28;20036;-85
2023/04/29 02:03:21;;;;;;;8.80;5.83;;;;;;;12.39;100.00;95936.50;5055735;28;20021;-86
2023/04/29 02:05:50;;;;;;;7.53;5.20;;;;;;;12.35;100.00;95930.75;5072196;28;20035;-86
2023/04/29 02:08:17;;;;;;;7.50;4.90;;;;;;;12.26;100.00;95921.28;5051779;28;20017;-85
2023/04/29 02:11:07;;;;;;;7.83;5.17;;;;;;;12.29;100.00;95928.81;5051191;28;20028;-85
2023/04/29 02:13:36;;;;;;;7.77;5.50;;;;;;;12.21;100.00;95923.63;5078191;28;20044;-86
2023/04/29 02:16:10;;;;;;;8.27;5.23;;;;;;;12.20;100.00;95932.50;5070943;28;20058;-85
2023/04/29 02:18:38;;;;;;;7.10;5.17;;;;;;;12.19;100.00;95933.53;5075633;28;20031;-86
2023/04/29 02:21:05;;;;;;;6.87;5.20;;;;;;;12.17;100.00;95938.97;5069324;28;20021;-84
2023/04/29 02:23:36;;;;;;;8.57;6.23;;;;;;;12.13;100.00;95944.75;5081711;28;20262;-85
2023/04/29 02:26:05;;;;;;;8.07;6.40;;;;;;;12.28;100.00;95940.38;5085931;28;20077;-83
2023/04/29 02:28:31;;;;;;;11.27;7.00;;;;;;;12.41;100.00;95948.50;5059948;28;20032;-85
2023/04/29 02:30:56;;;;;;;10.43;8.43;;;;;;;12.31;100.00;95953.22;5071211;28;20024;-85
2023/04/29 02:33:22;;;;;;;9.43;7.83;;;;;;;12.45;100.00;95952.44;5060346;28;20036;-85
2023/04/29 02:35:48;;;;;;;9.87;7.87;;;;;;;12.48;100.00;95952.06;5048955;28;20029;-86
2023/04/29 02:38:15;;;;;;;10.27;8.33;;;;;;;12.46;100.00;95948.78;5067671;28;20028;-86
2023/04/29 02:40:42;;;;;;;13.57;9.27;;;;;;;12.38;100.00;95951.50;5045469;28;20028;-86
2023/04/29 02:43:08;;;;;;;13.70;9.13;;;;;;;12.40;100.00;95953.94;5067592;28;20025;-85
2023/04/29 02:45:34;;;;;;;11.20;8.70;;;;;;;12.39;100.00;95945.22;5046749;28;20050;-86
2023/04/29 02:48:00;;;;;;;14.80;8.73;;;;;;;12.42;100.00;95955.41;5051393;28;20032;-85
2023/04/29 02:50:26;;;;;;;15.13;9.80;;;;;;;12.25;100.00;95953.91;5048059;28;20059;-86
2023/04/29 02:52:52;;;;;;;56.57;11.30;;;;;;;12.12;100.00;95948.41;5058198;28;20380;-86
2023/04/29 02:55:17;;;;;;;102.90;11.60;;;;;;;12.07;100.00;95945.47;5047683;28;20032;-85
2023/04/29 02:57:43;;;;;;;99.20;11.77;;;;;;;12.00;100.00;95943.56;5047438;28;20454;-86
2023/04/29 03:00:10;;;;;;;138.70;10.80;;;;;;;11.97;100.00;95943.91;5068849;28;20134;-86
2023/04/29 03:02:36;;;;;;;106.40;11.43;;;;;;;12.09;100.00;95948.75;5070442;28;20031;-86
2023/04/29 03:05:03;;;;;;;98.93;12.23;;;;;;;12.02;100.00;95938.09;5051561;28;20028;-86
2023/04/29 03:07:30;;;;;;;57.63;9.90;;;;;;;12.08;100.00;95944.47;5064846;28;20032;-85
2023/04/29 03:09:55;;;;;;;57.30;10.30;;;;;;;12.08;100.00;95942.66;5065966;28;20021;-85
2023/04/29 03:12:21;;;;;;;77.37;11.53;;;;;;;12.09;100.00;95940.84;5051069;28;20122;-86
2023/04/29 03:14:48;;;;;;;33.93;10.20;;;;;;;12.15;100.00;95942.78;5046819;28;20025;-86
2023/04/29 03:17:33;;;;;;;63.60;11.97;;;;;;;12.06;100.00;95942.00;5050260;28;20024;-86
2023/04/29 03:20:03;;;;;;;56.87;11.73;;;;;;;12.05;100.00;95937.75;5051330;28;20083;-86
2023/04/29 03:22:35;;;;;;;94.37;12.10;;;;;;;12.16;100.00;95936.50;5046263;28;20430;-85
2023/04/29 03:25:01;;;;;;;80.40;11.77;;;;;;;12.14;100.00;95936.69;5059615;28;20060;-85
2023/04/29 03:27:27;;;;;;;97.43;12.43;;;;;;;12.00;100.00;95935.66;5054858;28;20051;-85
2023/04/29 03:29:53;;;;;;;44.87;10.37;;;;;;;12.02;100.00;95935.47;5058026;28;21705;-85
2023/04/29 03:32:20;;;;;;;36.80;9.17;;;;;;;12.01;100.00;95941.72;5048523;28;20506;-85
2023/04/29 03:34:50;;;;;;;78.93;12.83;;;;;;;12.01;100.00;95947.81;5042408;28;20033;-86
2023/04/29 03:37:25;;;;;;;39.57;10.60;;;;;;;12.00;100.00;95935.66;5037607;28;20067;-85
2023/04/29 03:39:58;;;;;;;25.35;9.60;;;;;;;12.09;100.00;95940.84;5049186;28;20043;-86
2023/04/29 03:42:23;;;;;;;25.73;9.20;;;;;;;12.08;100.00;95940.03;5068164;28;20040;-86
2023/04/29 03:44:49;;;;;;;30.10;9.93;;;;;;;12.14;100.00;95941.97;5077304;28;20416;-85
2023/04/29 03:47:15;;;;;;;13.87;10.03;;;;;;;12.17;100.00;95936.34;5053353;28;20028;-86
2023/04/29 03:49:40;;;;;;;11.67;9.57;;;;;;;12.13;100.00;95929.75;5054714;28;20041;-85
2023/04/29 03:52:07;;;;;;;12.17;9.80;;;;;;;12.15;100.00;95933.06;5044584;28;20037;-85
2023/04/29 03:54:33;;;;;;;18.90;10.73;;;;;;;12.17;100.00;95940.78;5074177;28;20037;-85
2023/04/29 03:56:59;;;;;;;31.13;10.93;;;;;;;12.19;100.00;95934.34;5046004;28;20502;-85
2023/04/29 03:59:25;;;;;;;47.20;11.87;;;;;;;12.14;100.00;95926.16;5064610;28;20028;-85
2023/04/29 04:01:52;;;;;;;142.33;14.93;;;;;;;12.13;100.00;95942.13;5045275;28;20036;-86
2023/04/29 04:04:18;;;;;;;118.33;13.27;;;;;;;12.03;100.00;95934.44;5067074;28;20446;-86
2023/04/29 04:07:03;;;;;;;114.67;12.27;;;;;;;11.93;100.00;95939.94;5058218;28;20098;-85
2023/04/29 04:09:39;;;;;;;211.37;16.33;;;;;;;11.94;100.00;95928.44;5070169;28;20032;-85
2023/04/29 04:12:05;;;;;;;118.03;12.67;;;;;;;11.91;100.00;95931.41;5054856;28;20508;-85
2023/04/29 04:14:33;;;;;;;121.43;12.60;;;;;;;11.98;100.00;95942.06;5052676;28;20540;-86
2023/04/29 04:17:16;;;;;;;105.67;12.90;;;;;;;11.98;100.00;95940.25;5051955;28;20023;-85
2023/04/29 04:19:41;;;;;;;177.73;15.07;;;;;;;11.94;100.00;95940.78;5045156;28;20122;-86
2023/04/29 04:22:10;;;;;;;82.07;11.10;;;;;;;11.93;100.00;95944.41;5059737;28;20408;-86
2023/04/29 04:24:38;;;;;;;96.00;10.80;;;;;;;11.87;100.00;95947.72;5066367;28;20643;-86
2023/04/29 04:27:04;;;;;;;65.90;11.20;;;;;;;11.85;100.00;95949.72;5072190;28;20054;-86
2023/04/29 04:29:34;;;;;;;23.43;8.00;;;;;;;11.87;100.00;95951.22;5071720;28;20501;-86
2023/04/29 04:32:10;;;;;;;25.03;8.67;;;;;;;12.00;100.00;95961.16;5069111;28;20386;-85
2023/04/29 04:34:40;;;;;;;17.53;9.17;;;;;;;12.08;100.00;95958.47;5054083;28;20033;-85
2023/04/29 04:37:05;;;;;;;15.07;8.60;;;;;;;12.10;100.00;95961.75;5072431;28;20032;-85
2023/04/29 04:39:35;;;;;;;9.87;8.23;;;;;;;12.11;100.00;95959.94;5053925;28;20037;-86
2023/04/29 04:42:02;;;;;;;10.87;8.90;;;;;;;12.07;100.00;95963.91;5055495;28;20383;-86
2023/04/29 04:44:30;;;;;;;11.67;8.83;;;;;;;11.96;100.00;95959.88;5052395;28;20490;-85
2023/04/29 04:47:23;;;;;;;12.47;8.70;;;;;;;11.97;100.00;95972.03;5054601;28;20493;-86
2023/04/29 04:49:57;;;;;;;13.87;10.43;;;;;;;11.91;100.00;95973.56;5069319;28;20033;-86
2023/04/29 04:52:22;;;;;;;18.50;10.17;;;;;;;11.97;100.00;95977.31;5056305;28;20037;-85
2023/04/29 04:54:58;;;;;;;28.27;10.20;;;;;;;11.89;100.00;95958.94;5062051;28;20578;-85
2023/04/29 04:57:27;;;;;;;14.30;8.73;;;;;;;11.87;100.00;95974.94;5055232;28;20028;-85
2023/04/29 04:59:56;;;;;;;12.03;8.83;;;;;;;11.97;100.00;95978.16;5071529;28;20144;-86
2023/04/29 05:02:32;;;;;;;12.20;8.33;;;;;;;12.05;100.00;95973.81;5069718;28;20044;-86
2023/04/29 05:04:57;;;;;;;11.60;8.57;;;;;;;12.17;100.00;95969.78;5060321;28;20477;-85
2023/04/29 05:07:26;;;;;;;14.80;8.50;;;;;;;12.15;100.00;95972.59;5065275;28;20490;-85
2023/04/29 05:10:13;;;;;;;10.60;8.23;;;;;;;12.19;100.00;95970.44;5051643;28;20108;-86
2023/04/29 05:12:45;;;;;;;14.57;8.47;;;;;;;12.34;100.00;95979.22;5043183;28;20041;-85
2023/04/29 05:15:11;;;;;;;12.27;8.13;;;;;;;12.66;100.00;95982.59;5046197;28;20037;-85
2023/04/29 05:17:37;;;;;;;9.50;7.30;;;;;;;12.69;100.00;95983.06;5057414;28;20539;-86
2023/04/29 05:20:03;;;;;;;11.07;7.13;;;;;;;12.60;100.00;95985.94;5056696;28;20044;-86
2023/04/29 05:22:29;;;;;;;8.70;6.20;;;;;;;12.45;100.00;95986.72;5053828;28;20017;-85
2023/04/29 05:25:01;;;;;;;8.07;6.07;;;;;;;12.51;100.00;95993.09;5094313;28;20035;-86
2023/04/29 05:27:33;;;;;;;14.60;6.70;;;;;;;12.45;100.00;95992.00;5067844;28;20125;-85
2023/04/29 05:30:00;;;;;;;12.60;5.43;;;;;;;12.67;100.00;96000.03;5061678;28;20028;-86
2023/04/29 05:32:25;;;;;;;13.40;6.33;;;;;;;13.14;100.00;95991.03;5049371;28;21051;-86
2023/04/29 05:35:00;;;;;;;7.90;6.50;;;;;;;13.33;100.00;96006.38;5059853;28;20029;-86
2023/04/29 05:37:29;;;;;;;9.23;5.80;;;;;;;13.18;100.00;96010.81;5045090;28;20025;-86
2023/04/29 05:40:09;;;;;;;7.47;5.50;;;;;;;13.13;100.00;95999.97;5052637;28;20458;-86
2023/04/29 05:42:35;;;;;;;8.77;6.00;;;;;;;13.51;100.00;95997.25;5054027;28;20048;-86
2023/04/29 05:45:01;;;;;;;7.47;5.83;;;;;;;14.04;100.00;96001.38;5051245;28;20013;-86
2023/04/29 05:47:28;;;;;;;9.53;6.20;;;;;;;14.17;100.00;95992.75;5068690;28;20111;-86
2023/04/29 05:49:55;;;;;;;10.23;6.37;;;;;;;14.56;100.00;95996.84;5050279;28;20466;-86
2023/04/29 05:52:23;;;;;;;8.33;5.97;;;;;;;14.42;100.00;95997.69;5069479;28;20030;-86
2023/04/29 05:54:49;;;;;;;10.60;5.73;;;;;;;14.14;100.00;96001.88;5070603;28;20020;-86
2023/04/29 05:57:15;;;;;;;6.60;5.10;;;;;;;13.94;100.00;96003.50;5051578;28;20025;-86
2023/04/29 05:59:49;;;;;;;9.33;5.50;;;;;;;13.95;100.00;96009.59;5070500;28;20028;-86
2023/04/29 06:02:19;;;;;;;8.00;5.53;;;;;;;14.04;100.00;96016.41;5052316;28;20028;-86
2023/04/29 06:04:46;;;;;;;7.53;6.07;;;;;;;13.91;100.00;96019.72;5053784;28;20040;-87
2023/04/29 06:07:13;;;;;;;8.87;7.10;;;;;;;14.03;100.00;96018.25;5062184;28;20393;-86
2023/04/29 06:09:56;;;;;;;12.37;7.57;;;;;;;13.95;100.00;96015.72;5072535;28;20028;-86
2023/04/29 06:12:26;;;;;;;9.27;6.60;;;;;;;14.02;100.00;96026.38;5068725;28;20028;-85
2023/04/29 06:15:00;;;;;;;10.80;6.57;;;;;;;13.83;100.00;96025.94;5053531;28;20021;-87
2023/04/29 06:17:31;;;;;;;10.33;6.00;;;;;;;13.89;100.00;96029.69;5053168;28;20486;-86
2023/04/29 06:19:56;;;;;;;8.53;6.60;;;;;;;14.06;100.00;96038.22;5043976;28;20128;-86
2023/04/29 06:22:30;;;;;;;10.30;7.80;;;;;;;14.52;100.00;96027.31;5067060;28;20040;-86
2023/04/29 06:24:58;;;;;;;9.50;6.87;;;;;;;14.46;100.00;96036.81;5069512;28;20032;-87
2023/04/29 06:27:34;;;;;;;9.13;6.63;;;;;;;14.83;100.00;96030.47;5043202;28;20452;-87
2023/04/29 06:29:59;;;;;;;9.73;7.97;;;;;;;15.69;100.00;96025.00;5058533;28;20029;-86
2023/04/29 06:32:27;;;;;;;7.95;6.82;;;;;;;15.26;100.00;96022.47;5052505;28;20401;-86
2023/04/29 06:34:55;;;;;;;9.85;7.72;;;;;;;15.03;100.00;96035.94;5071204;28;20115;-86
2023/04/29 06:37:27;;;;;;;10.15;7.47;;;;;;;14.89;100.00;96038.66;5067981;28;20037;-87
2023/04/29 06:40:07;;;;;;;9.30;8.05;;;;;;;15.10;100.00;96041.28;5073361;28;20028;-86
2023/04/29 06:42:51;;;;;;;10.02;7.93;;;;;;;14.93;100.00;96046.03;5098255;28;20062;-86
2023/04/29 06:45:37;;;;;;;9.07;7.63;;;;;;;15.34;100.00;96040.03;5070192;28;20032;-87
2023/04/29 06:48:07;;;;;;;8.52;6.90;;;;;;;16.64;100.00;96033.88;5049891;28;20040;-87
2023/04/29 06:50:38;;;;;;;8.50;7.60;;;;;;;17.17;100.00;96022.50;5053246;28;20028;-87
2023/04/29 06:53:05;;;;;;;7.57;6.03;;;;;;;16.66;100.00;96017.72;5045490;28;20072;-87
2023/04/29 06:55:31;;;;;;;7.75;5.85;;;;;;;16.32;100.00;96027.47;5063001;28;20040;-87
2023/04/29 06:57:57;;;;;;;12.20;6.75;;;;;;;16.88;100.00;96023.72;5060880;28;20032;-87
2023/04/29 07:00:24;;;;;;;7.60;5.57;;;;;;;16.37;100.00;96021.56;5069585;28;20047;-87
2023/04/29 07:02:54;;;;;;;7.13;5.25;;;;;;;16.06;100.00;96025.53;5053279;28;20052;-87
2023/04/29 07:05:20;;;;;;;7.35;5.90;;;;;;;15.85;100.00;96028.31;5034936;28;20052;-87
2023/04/29 07:07:45;;;;;;;8.52;6.30;;;;;;;16.02;100.00;96033.06;5050432;28;20044;-87
2023/04/29 07:10:11;;;;;;;6.72;5.10;;;;;;;15.81;100.00;96040.34;5068422;28;20032;-88
2023/04/29 07:12:40;;;;;;;6.88;5.22;;;;;;;16.33;100.00;96033.59;5045404;28;20547;-87
2023/04/29 07:15:06;;;;;;;7.63;4.30;;;;;;;16.60;100.00;96042.44;5050172;28;20036;-87
2023/04/29 07:17:32;;;;;;;6.68;4.05;;;;;;;16.19;100.00;96030.91;5060817;28;20074;-90
2023/04/29 07:19:57;;;;;;;6.03;4.80;;;;;;;15.57;100.00;96053.03;5050020;28;20029;-87
2023/04/29 07:22:23;;;;;;;7.03;5.03;;;;;;;15.27;100.00;96045.28;5049755;28;20037;-88
2023/04/29 07:24:54;;;;;;;6.43;5.00;;;;;;;15.11;100.00;96058.81;5057216;28;20039;-88
2023/04/29 07:27:20;;;;;;;7.05;4.78;;;;;;;15.02;100.00;96058.16;5075660;28;20024;-87
2023/04/29 07:29:46;;;;;;;7.32;4.60;;;;;;;14.88;100.00;96058.22;5061590;28;20546;-87
2023/04/29 07:32:12;;;;;;;8.52;5.60;;;;;;;15.26;100.00;96062.19;5081976;28;20029;-87
2023/04/29 07:34:38;;;;;;;7.38;5.00;;;;;;;15.54;100.00;96066.66;5048356;28;20528;-87
2023/04/29 07:37:03;;;;;;;6.75;4.07;;;;;;;15.90;100.00;96057.72;5034688;28;20052;-87
2023/04/29 07:39:30;;;;;;;6.95;3.65;;;;;;;15.51;100.00;96059.09;5050134;28;20407;-87
2023/04/29 07:42:00;;;;;;;6.30;3.45;;;;;;;15.47;100.00;96063.97;5046608;28;20040;-88
2023/04/29 07:44:28;;;;;;;4.63;3.20;;;;;;;16.39;100.00;96056.69;5059994;28;20043;-86
2023/04/29 07:46:59;;;;;;;3.95;2.85;;;;;;;17.85;100.00;96051.44;5061013;28;20094;-86
2023/04/29 07:49:25;;;;;;;4.18;2.65;;;;;;;18.23;100.00;96042.69;5049803;28;20861;-86
2023/04/29 07:51:50;;;;;;;3.08;2.30;;;;;;;17.67;100.00;96058.22;5058711;28;20033;-87
2023/04/29 07:54:17;;;;;;;5.32;2.47;;;;;;;16.53;100.00;96061.00;5060235;28;20033;-87
2023/04/29 07:56:46;;;;;;;4.85;2.33;;;;;;;16.24;100.00;96070.94;5064939;28;20123;-88
2023/04/29 07:59:11;;;;;;;3.55;2.30;;;;;;;15.90;100.00;96073.63;5076994;28;20993;-88
2023/04/29 08:01:40;;;;;;;4.30;2.45;;;;;;;15.77;100.00;96085.81;5063407;28;20029;-87
2023/04/29 08:04:08;;;;;;;4.00;2.72;;;;;;;15.73;100.00;96079.25;5052602;28;20520;-87
2023/04/29 08:06:44;;;;;;;3.22;2.28;;;;;;;15.55;100.00;96086.84;5047348;28;20060;-88
2023/04/29 08:09:11;;;;;;;6.63;2.53;;;;;;;15.40;100.00;96092.25;5048642;28;20083;-87
2023/04/29 08:11:41;;;;;;;4.13;2.40;;;;;;;15.35;100.00;96097.31;5054741;28;20028;-87
2023/04/29 08:14:06;;;;;;;4.40;2.28;;;;;;;15.15;100.00;96097.13;5051058;28;20063;-87
2023/04/29 08:16:33;;;;;;;6.75;3.10;;;;;;;15.23;100.00;96104.16;5023186;28;20701;-87
2023/04/29 08:19:05;;;;;;;6.88;3.38;;;;;;;15.16;100.00;96104.09;5002142;28;20028;-82
2023/04/29 08:21:32;;;;;;;5.22;2.80;;;;;;;15.18;100.00;96110.00;5000321;28;20032;-82
2023/04/29 08:24:00;;;;;;;5.07;2.50;;;;;;;15.08;100.00;96112.16;4979228;28;20043;-83
2023/04/29 08:26:26;;;;;;;6.35;2.80;;;;;;;14.91;100.00;96116.06;4982939;28;20033;-87
2023/04/29 08:28:52;;;;;;;5.22;2.95;;;;;;;14.92;100.00;96115.06;5012197;28;21124;-87
2023/04/29 08:31:19;;;;;;;6.47;3.40;;;;;;;14.89;100.00;96113.63;5012010;28;20059;-86
2023/04/29 08:33:45;;;;;;;4.22;2.50;;;;;;;14.59;100.00;96120.84;5027216;28;20041;-86
2023/04/29 08:36:11;;;;;;;5.55;2.78;;;;;;;14.61;100.00;96116.19;5021043;28;20038;-88
2023/04/29 08:38:37;;;;;;;5.75;2.55;;;;;;;14.38;100.00;96125.06;5019079;28;20059;-88
2023/04/29 08:41:02;;;;;;;3.65;2.35;;;;;;;14.88;100.00;96122.56;5018669;28;20052;-87
2023/04/29 08:43:29;;;;;;;6.57;2.95;;;;;;;15.17;100.00;96121.63;5018458;28;20035;-87
2023/04/29 08:45:57;;;;;;;5.00;2.58;;;;;;;15.57;100.00;96124.59;5063184;28;20033;-87
2023/04/29 08:48:25;;;;;;;5.50;2.80;;;;;;;16.01;100.00;96118.16;5056021;28;20055;-88
2023/04/29 08:50:51;;;;;;;7.97;2.97;;;;;;;16.07;100.00;96116.56;5063783;28;20036;-87
2023/04/29 08:53:19;;;;;;;4.63;2.67;;;;;;;15.97;100.00;96114.28;5047613;28;20032;-88
2023/04/29 08:55:46;;;;;;;4.43;2.20;;;;;;;15.95;100.00;96118.94;5063816;28;20099;-88
2023/04/29 08:58:13;;;;;;;5.45;2.40;;;;;;;16.02;100.00;96117.13;5046851;28;21210;-88
2023/04/29 09:00:41;;;;;;;4.43;2.33;;;;;;;16.14;100.00;96118.22;5061004;28;21393;-88
2023/04/29 09:03:28;;;;;;;9.25;3.38;;;;;;;15.81;100.00;96122.53;5046520;28;20043;-87
2023/04/29 09:05:58;;;;;;;3.42;1.90;;;;;;;15.74;100.00;96118.00;5063828;28;20600;-87
2023/04/29 09:08:25;;;;;;;2.30;1.67;;;;;;;16.12;100.00;96114.94;5061639;28;20094;-88
2023/04/29 09:10:51;;;;;;;4.25;1.90;;;;;;;15.68;100.00;96123.25;5063825;28;20037;-86
2023/04/29 09:13:27;;;;;;;4.43;2.38;;;;;;;16.18;100.00;96118.66;5045610;28;20497;-87
2023/04/29 09:15:53;;;;;;;2.75;1.80;;;;;;;15.97;100.00;96122.22;5043524;28;20724;-85
2023/04/29 09:18:47;;;;;;;2.92;1.65;;;;;;;15.88;100.00;96120.75;5047153;28;20040;-87
2023/04/29 09:21:20;;;;;;;4.50;1.80;;;;;;;16.08;100.00;96124.31;5063405;28;20120;-87
2023/04/29 09:23:47;;;;;;;3.17;1.80;;;;;;;15.62;100.00;96124.81;5048287;28;20410;-87
2023/04/29 09:26:14;;;;;;;3.55;1.80;;;;;;;15.84;100.00;96122.97;5064801;28;20115;-87
2023/04/29 09:28:42;;;;;;;3.08;1.90;;;;;;;15.62;100.00;96126.66;5054393;28;20044;-87
2023/04/29 09:31:08;;;;;;;3.28;1.90;;;;;;;15.70;100.00;96131.84;5065868;28;20040;-87
2023/04/29 09:33:51;;;;;;;3.45;1.92;;;;;;;15.70;100.00;96134.50;5063515;28;20470;-87
2023/04/29 09:36:36;;;;;;;2.28;1.73;;;;;;;15.90;100.00;96132.78;5054435;28;20033;-87
2023/04/29 09:39:04;;;;;;;2.17;1.63;;;;;;;15.47;100.00;96140.00;5053312;28;20044;-88
2023/04/29 09:41:31;;;;;;;4.47;2.00;;;;;;;15.98;100.00;96131.81;5054815;28;20446;-88
2023/04/29 09:44:06;;;;;;;2.92;1.90;;;;;;;15.88;100.00;96134.00;5053596;28;20032;-86
2023/04/29 09:46:36;;;;;;;3.63;1.83;;;;;;;16.16;100.00;96140.09;5050593;28;20048;-87
2023/04/29 09:49:05;;;;;;;4.13;1.92;;;;;;;16.65;100.00;96136.41;5049708;28;20114;-88
2023/04/29 09:51:50;;;;;;;2.50;1.60;;;;;;;16.42;100.00;96138.56;5070472;28;20036;-87
2023/04/29 09:54:21;;;;;;;2.85;1.83;;;;;;;16.89;100.00;96147.53;5051402;28;20033;-85
2023/04/29 09:56:50;;;;;;;3.45;1.75;;;;;;;16.38;100.00;96145.28;5066782;28;20047;-87
2023/04/29 09:59:16;;;;;;;2.75;1.90;;;;;;;16.47;100.00;96144.09;5054077;28;20035;-87
2023/04/29 10:01:42;;;;;;;4.20;1.77;;;;;;;16.63;100.00;96142.91;5070631;28;20662;-86
2023/04/29 10:04:10;;;;;;;7.47;4.68;;;;;;;16.63;100.00;96142.91;5050674;28;20028;-87
2023/04/29 10:06:40;;;;;;;8.38;5.22;;;;;;;16.66;100.00;96142.53;5043218;28;20029;-85
2023/04/29 10:09:07;;;;;;;7.07;3.97;;;;;;;16.83;100.00;96140.34;5047754;28;20021;-87
2023/04/29 10:11:39;;;;;;;7.88;5.15;;;;;;;16.31;100.00;96141.78;5062435;28;20078;-87
2023/04/29 10:14:06;;;;;;;4.50;2.55;;;;;;;16.08;100.00;96144.72;5051978;28;20040;-87
2023/04/29 10:16:38;;;;;;;4.40;2.25;;;;;;;16.25;100.00;96148.69;5066076;28;20055;-86
2023/04/29 10:19:10;;;;;;;3.50;1.98;;;;;;;15.95;100.00;96142.81;5053317;28;20021;-86
2023/04/29 10:21:37;;;;;;;5.15;1.98;;;;;;;16.01;100.00;96145.50;5077307;28;20033;-86
2023/04/29 10:24:13;;;;;;;2.70;1.40;;;;;;;16.03;100.00;96147.97;5067988;28;20044;-86
2023/04/29 10:26:41;;;;;;;2.95;1.77;;;;;;;16.26;100.00;96145.84;5062981;28;20024;-87
2023/04/29 10:29:07;;;;;;;2.58;1.67;;;;;;;16.22;100.00;96149.09;5050168;28;20071;-87
2023/04/29 10:31:35;;;;;;;3.28;1.75;;;;;;;16.46;100.00;96145.09;5069279;28;20291;-87
2023/04/29 10:34:01;;;;;;;2.85;1.83;;;;;;;16.66;100.00;96143.34;5049843;28;20041;-87
2023/04/29 10:36:30;;;;;;;2.13;1.40;;;;;;;16.94;100.00;96150.41;5069837;28;20048;-87
2023/04/29 10:39:02;;;;;;;2.67;1.77;;;;;;;17.23;100.00;96141.25;5049797;28;20025;-87
2023/04/29 10:41:45;;;;;;;6.50;2.00;;;;;;;16.66;100.00;96138.03;5051310;28;20090;-87
2023/04/29 10:44:12;;;;;;;3.38;2.08;;;;;;;16.60;100.00;96138.84;5069565;28;20029;-87
2023/04/29 10:46:41;;;;;;;2.35;1.60;;;;;;;16.86;100.00;96135.47;5069436;28;20131;-87
2023/04/29 10:49:07;;;;;;;3.72;2.05;;;;;;;16.87;100.00;96133.66;5039809;28;20033;-87
2023/04/29 10:51:34;;;;;;;4.90;2.08;;;;;;;16.94;100.00;96134.47;5066920;28;20056;-87
2023/04/29 10:54:13;;;;;;;2.83;1.77;;;;;;;17.15;100.00;96130.81;5053390;28;20036;-86
2023/04/29 10:56:49;;;;;;;2.60;1.55;;;;;;;16.81;100.00;96129.94;5042135;28;20044;-86
2023/04/29 10:59:35;;;;;;;3.25;1.65;;;;;;;16.79;100.00;96121.34;5052417;28;20020;-87
2023/04/29 11:02:01;;;;;;;4.22;1.55;;;;;;;17.23;100.00;96127.13;5051562;28;20048;-86
2023/04/29 11:04:27;;;;;;;2.92;1.88;;;;;;;16.69;100.00;96123.53;5069856;28;20044;-87
2023/04/29 11:06:55;;;;;;;5.05;2.03;;;;;;;17.13;100.00;96123.03;5052542;28;20665;-86
2023/04/29 11:09:23;;;;;;;2.03;1.48;;;;;;;17.05;100.00;96130.41;5067722;28;20387;-86
2023/04/29 11:11:56;;;;;;;3.70;1.60;;;;;;;17.31;100.00;96122.47;5051990;28;20032;-87
2023/04/29 11:14:35;;;;;;;4.30;1.73;;;;;;;17.22;100.00;96128.16;5050500;28;20512;-87
2023/04/29 11:17:22;;;;;;;14.52;10.48;;;;;;;16.78;100.00;96118.91;5046132;28;20032;-87
2023/04/29 11:19:54;;;;;;;4.55;2.65;;;;;;;16.67;100.00;96130.91;5058984;28;20103;-87
2023/04/29 11:22:29;;;;;;;5.03;2.87;;;;;;;16.58;100.00;96126.78;5069381;28;20033;-87
2023/04/29 11:25:24;;;;;;;4.22;1.95;;;;;;;16.36;100.00;96140.16;5060291;28;20033;-87
2023/04/29 11:27:50;;;;;;;5.60;2.50;;;;;;;16.44;100.00;96132.03;5044445;28;20433;-87
2023/04/29 11:30:18;;;;;;;3.55;2.38;;;;;;;16.43;100.00;96137.53;5050905;28;20032;-87
2023/04/29 11:32:44;;;;;;;3.45;2.10;;;;;;;15.99;100.00;96138.75;5046184;28;20032;-86
2023/04/29 11:35:18;;;;;;;3.50;2.08;;;;;;;16.25;100.00;96136.25;5069464;28;20040;-88
2023/04/29 11:37:45;;;;;;;4.22;1.77;;;;;;;16.26;100.00;96140.56;5056502;28;20044;-86